Time;durP1;ratioP1;P1;durP2;ratioP2;P2;SDS_P1;SDS_P2;PMS_P1;PMS_P2;Temp;Humidity;BMP_temperature;BMP_pressure;BME280_temperature;BME280_humidity;BME280_pressure;Samples;Min_cycle;Max_cycle;Signal;HPM_P1;HPM_P2
2022/10/25 00:01:23;;;;;;;14.03;6.45;;;;;;;9.99;100.00;99793.62;1758177;79;20993;-80
2022/10/25 00:03:49;;;;;;;15.75;7.50;;;;;;;9.98;100.00;99789.22;1756461;79;21053;-81
2022/10/25 00:06:17;;;;;;;16.45;7.33;;;;;;;9.95;100.00;99787.72;1764840;79;21009;-81
2022/10/25 00:08:44;;;;;;;15.40;7.37;;;;;;;9.93;100.00;99791.07;1770796;80;21057;-81
2022/10/25 00:11:19;;;;;;;16.53;7.67;;;;;;;9.93;100.00;99782.14;1756007;79;21001;-81
2022/10/25 00:13:51;;;;;;;16.45;7.30;;;;;;;9.91;100.00;99782.30;1765355;80;21000;-81
2022/10/25 00:16:20;;;;;;;18.15;7.62;;;;;;;9.92;100.00;99783.17;1708283;79;21020;-81
2022/10/25 00:18:50;;;;;;;17.65;7.90;;;;;;;9.92;100.00;99787.22;1754212;79;20992;-82
2022/10/25 00:21:19;;;;;;;15.60;7.23;;;;;;;9.93;100.00;99778.09;1737595;81;21072;-81
2022/10/25 00:23:46;;;;;;;13.53;7.27;;;;;;;9.92;100.00;99782.66;1733292;81;21073;-81
2022/10/25 00:26:14;;;;;;;16.23;7.37;;;;;;;9.92;100.00;99779.12;1739339;80;21022;-81
2022/10/25 00:28:41;;;;;;;17.57;7.53;;;;;;;9.89;100.00;99770.32;1755616;81;21108;-81
2022/10/25 00:31:11;;;;;;;15.00;7.00;;;;;;;9.89;100.00;99765.44;1778811;79;20989;-82
2022/10/25 00:33:41;;;;;;;13.23;6.87;;;;;;;9.88;100.00;99759.20;1784099;79;21026;-80
2022/10/25 00:36:18;;;;;;;12.28;6.58;;;;;;;9.86;100.00;99766.64;1781003;79;21688;-82
2022/10/25 00:38:46;;;;;;;13.72;6.62;;;;;;;9.84;100.00;99766.46;1785610;78;21038;-82
2022/10/25 00:41:18;;;;;;;15.83;7.23;;;;;;;9.81;100.00;99761.40;1762445;79;21005;-82
2022/10/25 00:43:52;;;;;;;14.60;6.97;;;;;;;9.80;100.00;99757.86;1702409;83;21090;-82
2022/10/25 00:46:23;;;;;;;14.28;6.60;;;;;;;9.80;100.00;99754.33;1677106;83;21122;-81
2022/10/25 00:49:15;;;;;;;13.18;6.40;;;;;;;9.75;100.00;99756.19;1703074;82;21034;-82
2022/10/25 00:51:53;;;;;;;12.83;7.03;;;;;;;9.72;100.00;99755.69;1707191;83;21046;-81
2022/10/25 00:54:28;;;;;;;12.55;6.08;;;;;;;9.69;100.00;99757.73;1647114;86;21100;-80
2022/10/25 00:56:58;;;;;;;14.50;6.50;;;;;;;9.66;100.00;99747.78;1631906;87;21102;-81
2022/10/25 00:59:25;;;;;;;13.35;6.22;;;;;;;9.63;100.00;99752.16;1596575;89;21037;-81
2022/10/25 01:01:53;;;;;;;11.97;5.90;;;;;;;9.61;100.00;99747.45;1589601;89;21164;-82
2022/10/25 01:04:25;;;;;;;13.50;6.53;;;;;;;9.60;100.00;99750.66;1610532;88;21550;-81
2022/10/25 01:06:53;;;;;;;15.40;6.92;;;;;;;9.58;100.00;99740.55;1561709;89;21126;-81
2022/10/25 01:09:26;;;;;;;13.75;5.72;;;;;;;9.58;100.00;99737.85;1519712;93;21121;-82
2022/10/25 01:11:53;;;;;;;11.05;5.95;;;;;;;9.58;100.00;99737.85;1545350;92;21040;-82
2022/10/25 01:14:21;;;;;;;10.67;6.10;;;;;;;9.56;100.00;99730.92;1534226;90;21446;-83
2022/10/25 01:17:14;;;;;;;10.83;5.93;;;;;;;9.52;100.00;99723.68;1543630;90;21150;-80
2022/10/25 01:20:12;;;;;;;10.13;5.33;;;;;;;9.50;100.00;99723.02;1541394;90;21059;-82
2022/10/25 01:22:58;;;;;;;11.90;6.10;;;;;;;9.45;100.00;99719.98;1538190;91;21068;-82
2022/10/25 01:25:47;;;;;;;10.53;5.65;;;;;;;9.41;100.00;99718.66;1554188;91;21048;-81
2022/10/25 01:28:26;;;;;;;9.40;5.37;;;;;;;9.40;100.00;99722.35;1551564;91;21104;-82
2022/10/25 01:31:27;;;;;;;10.10;4.90;;;;;;;9.36;100.00;99713.76;1547109;90;21629;-81
2022/10/25 01:34:12;;;;;;;8.97;5.20;;;;;;;9.35;100.00;99710.74;1495798;94;21122;-81
2022/10/25 01:36:51;;;;;;;9.97;5.23;;;;;;;9.34;100.00;99713.09;1525372;92;21086;-80
2022/10/25 01:39:42;;;;;;;9.87;5.00;;;;;;;9.35;100.00;99716.14;1528510;91;21198;-81
2022/10/25 01:42:29;;;;;;;9.53;5.33;;;;;;;9.35;100.00;99713.44;1604782;87;21057;-80
2022/10/25 01:45:17;;;;;;;7.97;4.80;;;;;;;9.33;100.00;99717.30;1612064;88;21164;-81
2022/10/25 01:48:06;;;;;;;8.67;4.93;;;;;;;9.28;100.00;99715.97;1585947;88;21037;-80
2022/10/25 01:50:35;;;;;;;10.77;4.97;;;;;;;9.25;100.00;99719.00;1610223;87;21085;-80
2022/10/25 01:53:02;;;;;;;7.30;4.93;;;;;;;9.23;100.00;99721.55;1632867;85;21057;-82
2022/10/25 01:55:36;;;;;;;9.67;5.13;;;;;;;9.20;100.00;99711.09;1672933;85;21047;-81
2022/10/25 01:58:45;;;;;;;11.18;4.72;;;;;;;9.17;100.00;99717.68;1668705;85;21054;-82
2022/10/25 02:01:26;;;;;;;9.93;5.13;;;;;;;9.15;100.00;99721.55;1665905;85;21039;-80
2022/10/25 02:04:02;;;;;;;6.97;4.60;;;;;;;9.07;100.00;99724.58;1615127;86;21041;-80
2022/10/25 02:06:42;;;;;;;9.80;4.80;;;;;;;9.04;100.00;99720.03;1564140;89;21632;-80
2022/10/25 02:09:29;;;;;;;10.67;5.10;;;;;;;8.99;100.00;99722.39;1580579;90;21658;-80
2022/10/25 02:11:56;;;;;;;11.57;5.07;;;;;;;8.92;100.00;99725.78;1609565;88;21074;-82
2022/10/25 02:14:37;;;;;;;10.93;4.87;;;;;;;8.87;100.00;99726.78;1581055;88;21093;-80
2022/10/25 02:17:15;;;;;;;12.57;5.30;;;;;;;8.84;100.00;99733.84;1596697;88;21072;-80
2022/10/25 02:19:53;;;;;;;8.43;4.97;;;;;;;8.80;100.00;99724.42;1607675;88;21095;-81
2022/10/25 02:22:23;;;;;;;9.87;5.10;;;;;;;8.79;100.00;99725.93;1611242;89;21081;-81
2022/10/25 02:24:50;;;;;;;9.30;5.00;;;;;;;8.79;100.00;99736.20;1603159;89;21115;-81
2022/10/25 02:27:17;;;;;;;11.07;4.80;;;;;;;8.82;100.00;99748.01;1604650;89;21069;-80
2022/10/25 02:29:45;;;;;;;9.00;5.37;;;;;;;8.85;100.00;99741.42;1582491;89;21075;-79
2022/10/25 02:32:12;;;;;;;11.70;5.23;;;;;;;8.88;100.00;99741.93;1580071;89;21070;-81
2022/10/25 02:34:40;;;;;;;10.53;5.10;;;;;;;8.92;100.00;99735.22;1574299;90;21103;-81
2022/10/25 02:37:08;;;;;;;11.43;5.20;;;;;;;8.98;100.00;99734.17;1581383;90;21077;-79
2022/10/25 02:39:35;;;;;;;17.50;7.93;;;;;;;9.05;100.00;99737.40;1596694;89;21062;-81
2022/10/25 02:42:04;;;;;;;18.13;8.77;;;;;;;9.10;100.00;99730.12;1579663;90;21584;-81
2022/10/25 02:44:32;;;;;;;14.70;7.47;;;;;;;9.17;100.00;99734.35;1620263;87;21130;-80
2022/10/25 02:47:01;;;;;;;15.43;7.60;;;;;;;9.22;100.00;99730.12;1628023;87;21069;-81
2022/10/25 02:49:28;;;;;;;15.70;7.33;;;;;;;9.27;100.00;99729.63;1624579;87;21184;-81
2022/10/25 02:51:56;;;;;;;14.33;7.62;;;;;;;9.30;100.00;99726.08;1610490;88;21118;-81
2022/10/25 02:54:25;;;;;;;17.20;7.73;;;;;;;9.35;100.00;99724.23;1619109;87;21111;-79
2022/10/25 02:56:52;;;;;;;15.15;6.90;;;;;;;9.40;100.00;99721.87;1616036;87;21056;-81
2022/10/25 02:59:20;;;;;;;13.87;6.73;;;;;;;9.43;100.00;99716.11;1621141;87;21162;-82
2022/10/25 03:01:47;;;;;;;15.27;7.00;;;;;;;9.47;100.00;99716.60;1689230;83;21076;-82
2022/10/25 03:04:14;;;;;;;15.83;7.13;;;;;;;9.48;100.00;99702.94;1695276;84;21024;-81
2022/10/25 03:06:41;;;;;;;13.90;7.00;;;;;;;9.49;100.00;99695.67;1679196;83;21103;-81
2022/10/25 03:09:08;;;;;;;12.17;7.00;;;;;;;9.51;100.00;99689.63;1696012;83;21044;-81
2022/10/25 03:11:35;;;;;;;13.07;6.97;;;;;;;9.52;100.00;99690.45;1693957;84;21089;-81
2022/10/25 03:14:02;;;;;;;15.70;7.22;;;;;;;9.50;100.00;99689.27;1725388;80;21032;-81
2022/10/25 03:16:31;;;;;;;14.77;7.70;;;;;;;9.51;100.00;99680.18;1752667;80;21034;-82
2022/10/25 03:18:58;;;;;;;15.73;7.63;;;;;;;9.50;100.00;99675.27;1751197;80;21082;-82
2022/10/25 03:21:25;;;;;;;15.15;7.20;;;;;;;9.52;100.00;99676.96;1718253;81;21085;-81
2022/10/25 03:23:54;;;;;;;17.13;7.93;;;;;;;9.52;100.00;99673.75;1743138;80;21040;-81
2022/10/25 03:26:21;;;;;;;15.33;7.60;;;;;;;9.52;100.00;99672.91;1744042;80;21082;-82
2022/10/25 03:28:48;;;;;;;16.20;7.83;;;;;;;9.52;100.00;99675.61;1737528;80;21566;-80
2022/10/25 03:31:16;;;;;;;16.90;8.67;;;;;;;9.51;100.00;99672.08;1753053;80;21006;-82
2022/10/25 03:33:43;;;;;;;15.00;8.27;;;;;;;9.52;100.00;99679.66;1742920;80;21069;-80
2022/10/25 03:36:10;;;;;;;16.63;8.50;;;;;;;9.52;100.00;99676.96;1740442;80;21095;-82
2022/10/25 03:38:37;;;;;;;17.37;8.83;;;;;;;9.51;100.00;99672.08;1738824;80;21020;-84
2022/10/25 03:41:04;;;;;;;19.40;9.15;;;;;;;9.50;100.00;99677.13;1747509;80;21011;-80
2022/10/25 03:43:32;;;;;;;18.75;8.58;;;;;;;9.49;100.00;99678.13;1756607;80;21033;-83
2022/10/25 03:45:58;;;;;;;16.77;8.07;;;;;;;9.46;100.00;99676.64;1718032;81;20990;-82
2022/10/25 03:48:25;;;;;;;19.63;8.50;;;;;;;9.46;100.00;99677.16;1753240;80;21029;-81
2022/10/25 03:50:53;;;;;;;19.60;9.07;;;;;;;9.45;100.00;99683.55;1754852;80;21574;-80
2022/10/25 03:53:20;;;;;;;19.50;9.13;;;;;;;9.43;100.00;99679.67;1748184;80;21026;-82
2022/10/25 03:55:47;;;;;;;19.93;9.90;;;;;;;9.42;100.00;99682.05;1756300;80;21065;-80
2022/10/25 03:58:13;;;;;;;18.07;8.80;;;;;;;9.41;100.00;99679.01;1741202;80;21520;-81
2022/10/25 04:00:40;;;;;;;19.23;9.00;;;;;;;9.39;100.00;99671.59;1767899;78;21024;-81
2022/10/25 04:03:08;;;;;;;21.13;10.07;;;;;;;9.39;100.00;99670.25;1776896;78;21025;-81
2022/10/25 04:05:35;;;;;;;19.07;8.70;;;;;;;9.38;100.00;99661.80;1746289;79;21017;-81
2022/10/25 04:08:02;;;;;;;19.00;9.33;;;;;;;9.38;100.00;99659.63;1777653;79;21072;-79
2022/10/25 04:10:29;;;;;;;18.73;9.53;;;;;;;9.36;100.00;99657.09;1774192;78;21551;-81
2022/10/25 04:12:56;;;;;;;15.20;7.77;;;;;;;9.35;100.00;99658.61;1778836;78;20997;-82
2022/10/25 04:15:23;;;;;;;19.90;8.90;;;;;;;9.35;100.00;99653.21;1781404;79;21050;-81
2022/10/25 04:17:51;;;;;;;19.63;9.10;;;;;;;9.35;100.00;99653.21;1778450;78;21056;-82
2022/10/25 04:20:18;;;;;;;19.07;8.73;;;;;;;9.34;100.00;99648.85;1775022;79;21084;-81
2022/10/25 04:22:46;;;;;;;23.43;9.40;;;;;;;9.35;100.00;99657.27;1776828;79;20994;-81
2022/10/25 04:25:13;;;;;;;20.37;9.37;;;;;;;9.36;100.00;99651.70;1792699;79;21597;-80
2022/10/25 04:27:39;;;;;;;18.17;9.20;;;;;;;9.36;100.00;99651.70;1753758;81;21029;-80
2022/10/25 04:30:08;;;;;;;20.10;9.37;;;;;;;9.37;100.00;99651.20;1753742;80;21003;-80
2022/10/25 04:32:35;;;;;;;18.47;8.90;;;;;;;9.39;100.00;99663.50;1754678;80;21024;-82
2022/10/25 04:35:04;;;;;;;19.05;9.00;;;;;;;9.39;100.00;99656.75;1765041;79;21065;-80
2022/10/25 04:37:31;;;;;;;19.90;9.00;;;;;;;9.42;100.00;99655.55;1772131;79;21028;-80
2022/10/25 04:39:58;;;;;;;22.13;9.93;;;;;;;9.44;100.00;99667.05;1769665;79;21116;-82
2022/10/25 04:42:25;;;;;;;18.23;8.57;;;;;;;9.46;100.00;99660.96;1783835;79;21079;-81
2022/10/25 04:44:52;;;;;;;18.33;8.77;;;;;;;9.48;100.00;99666.50;1755996;81;21073;-81
2022/10/25 04:47:19;;;;;;;18.93;8.97;;;;;;;9.52;100.00;99659.42;1760859;80;21007;-81
2022/10/25 04:49:45;;;;;;;19.62;8.70;;;;;;;9.55;100.00;99661.27;1765294;79;20962;-79
2022/10/25 04:52:12;;;;;;;18.90;8.27;;;;;;;9.59;100.00;99661.75;1782600;77;21029;-80
2022/10/25 04:54:40;;;;;;;18.30;9.23;;;;;;;9.62;100.00;99657.37;1790083;77;21003;-80
2022/10/25 04:57:06;;;;;;;21.07;8.93;;;;;;;9.64;100.00;99656.68;1783192;79;21061;-76
2022/10/25 04:59:33;;;;;;;14.35;7.45;;;;;;;9.67;100.00;99657.17;1801839;77;21479;-75
2022/10/25 05:02:00;;;;;;;17.25;8.45;;;;;;;9.72;100.00;99663.41;1816145;77;21005;-74
2022/10/25 05:04:27;;;;;;;39.48;22.77;;;;;;;9.77;100.00;99657.47;1818451;78;20998;-76
2022/10/25 05:06:54;;;;;;;21.07;10.23;;;;;;;9.82;100.00;99661.31;1817787;77;21467;-75
2022/10/25 05:09:21;;;;;;;42.40;20.77;;;;;;;9.88;100.00;99660.63;1814721;77;21103;-73
2022/10/25 05:11:49;;;;;;;22.50;10.50;;;;;;;9.91;100.00;99658.07;1786191;78;21065;-75
2022/10/25 05:14:16;;;;;;;20.60;9.78;;;;;;;9.97;100.00;99668.19;1774994;79;21056;-75
2022/10/25 05:16:44;;;;;;;21.10;10.13;;;;;;;10.01;100.00;99672.73;1786258;78;21550;-75
2022/10/25 05:19:11;;;;;;;19.12;9.13;;;;;;;10.04;100.00;99669.68;1781921;78;21491;-74
2022/10/25 05:21:39;;;;;;;17.05;8.00;;;;;;;10.08;100.00;99663.73;1751473;81;21006;-75
2022/10/25 05:24:07;;;;;;;14.78;7.25;;;;;;;10.11;100.00;99666.60;1756404;80;20994;-77
2022/10/25 05:26:34;;;;;;;18.50;8.38;;;;;;;10.15;100.00;99673.84;1753274;80;21033;-76
2022/10/25 05:29:01;;;;;;;19.20;8.88;;;;;;;10.19;100.00;99672.46;1763335;80;21080;-76
2022/10/25 05:31:30;;;;;;;21.97;10.82;;;;;;;10.26;100.00;99673.43;1782961;78;21041;-77
2022/10/25 05:33:59;;;;;;;25.12;13.08;;;;;;;10.30;100.00;99665.81;1786624;79;21037;-76
2022/10/25 05:36:31;;;;;;;27.13;12.63;;;;;;;10.34;100.00;99665.80;1786490;78;21021;-75
2022/10/25 05:39:01;;;;;;;29.05;14.58;;;;;;;10.38;100.00;99659.05;1791164;78;21006;-74
2022/10/25 05:41:28;;;;;;;20.48;10.80;;;;;;;10.45;100.00;99655.95;1792751;76;21061;-83
2022/10/25 05:43:55;;;;;;;20.27;10.68;;;;;;;10.49;100.00;99653.20;1792324;78;21005;-75
2022/10/25 05:46:22;;;;;;;20.52;9.78;;;;;;;10.52;100.00;99662.32;1788882;78;20987;-75
2022/10/25 05:48:50;;;;;;;17.77;9.20;;;;;;;10.55;100.00;99663.81;1786364;78;21164;-76
2022/10/25 05:51:28;;;;;;;22.90;10.50;;;;;;;10.58;100.00;99658.05;1758714;79;21484;-74
2022/10/25 05:53:57;;;;;;;19.27;9.95;;;;;;;10.60;100.00;99650.59;1734396;81;21042;-74
2022/10/25 05:56:26;;;;;;;20.35;9.35;;;;;;;10.63;100.00;99652.42;1733177;80;21030;-73
2022/10/25 06:01:23;;;;;;;17.55;8.15;;;;;;;10.68;100.00;99641.08;1723275;82;21074;-86
2022/10/25 06:03:51;;;;;;;27.75;13.80;;;;;;;10.74;100.00;99647.09;1790086;79;21002;-80
2022/10/25 06:06:18;;;;;;;25.25;13.28;;;;;;;10.83;100.00;99642.45;1786945;79;21073;-79
2022/10/25 06:08:45;;;;;;;20.90;10.98;;;;;;;10.92;100.00;99646.77;1762181;79;21034;-77
2022/10/25 06:11:18;;;;;;;16.73;8.60;;;;;;;11.01;100.00;99644.34;1775679;79;21194;-76
2022/10/25 06:13:46;;;;;;;16.05;7.00;;;;;;;11.10;100.00;99650.52;1766910;79;21164;-74
2022/10/25 06:16:16;;;;;;;15.55;7.15;;;;;;;11.20;100.00;99654.30;1747792;80;21010;-77
2022/10/25 06:18:43;;;;;;;13.50;7.15;;;;;;;11.29;100.00;99650.47;1772465;79;21052;-74
2022/10/25 06:21:13;;;;;;;15.95;7.30;;;;;;;11.34;100.00;99658.05;1765998;80;21006;-74
2022/10/25 06:23:40;;;;;;;15.13;7.45;;;;;;;11.37;100.00;99655.81;1733452;80;21041;-73
2022/10/25 06:26:10;;;;;;;13.43;6.58;;;;;;;11.39;100.00;99659.16;1743460;80;21058;-75
2022/10/25 06:28:37;;;;;;;16.05;7.62;;;;;;;11.38;100.00;99653.44;1748250;78;21065;-76
2022/10/25 07:21:48;;;;;;;17.42;9.00;;;;;;;12.32;100.00;99617.55;1788650;80;22894;-73
2022/10/25 07:24:15;;;;;;;16.75;8.38;;;;;;;12.46;100.00;99600.87;1766453;80;21092;-72
2022/10/25 07:26:42;;;;;;;13.83;7.28;;;;;;;12.57;100.00;99602.25;1764477;81;21038;-70
2022/10/25 07:29:09;;;;;;;15.08;7.20;;;;;;;12.65;100.00;99591.24;1795752;80;21081;-72
2022/10/25 07:31:40;;;;;;;18.10;7.97;;;;;;;12.75;100.00;99580.06;1799591;80;21514;-75
2022/10/25 07:34:06;;;;;;;15.55;7.10;;;;;;;12.79;100.00;99588.13;1662703;85;21027;-72
2022/10/25 07:36:33;;;;;;;14.25;6.67;;;;;;;12.84;100.00;99587.55;1662547;86;21067;-73
2022/10/25 07:39:02;;;;;;;14.68;6.80;;;;;;;12.90;100.00;99586.22;1662573;86;21473;-72
2022/10/25 07:41:28;;;;;;;14.98;7.00;;;;;;;12.99;100.00;99595.05;1662851;86;21525;-72
2022/10/25 07:43:55;;;;;;;15.25;6.80;;;;;;;13.10;100.00;99595.02;1662817;86;21003;-73
2022/10/25 07:46:22;;;;;;;14.07;6.80;;;;;;;13.21;100.00;99587.70;1662994;86;21500;-75
2022/10/25 07:48:48;;;;;;;13.20;6.62;;;;;;;13.27;100.00;99581.98;1661824;86;21583;-74
2022/10/25 07:51:17;;;;;;;14.38;6.55;;;;;;;13.30;100.00;99586.50;1661643;86;21251;-75
2022/10/25 07:53:43;;;;;;;14.50;6.55;;;;;;;13.36;100.00;99592.20;1662273;86;21063;-75
2022/10/25 07:56:15;;;;;;;11.00;5.83;;;;;;;13.38;100.00;99595.02;1662561;86;21015;-74
2022/10/25 07:58:42;;;;;;;13.13;6.10;;;;;;;13.46;100.00;99603.02;1662857;86;21075;-77
2022/10/25 08:01:09;;;;;;;13.48;6.10;;;;;;;13.53;100.00;99610.34;1662411;86;21043;-76
2022/10/25 08:03:36;;;;;;;16.52;6.90;;;;;;;13.61;100.00;99616.98;1662790;86;20988;-73
2022/10/25 08:06:03;;;;;;;13.05;6.42;;;;;;;13.67;100.00;99622.98;1662601;86;21524;-73
2022/10/25 08:08:30;;;;;;;12.93;6.22;;;;;;;13.74;100.00;99623.85;1662676;86;21038;-75
2022/10/25 08:10:58;;;;;;;11.40;6.05;;;;;;;13.88;100.00;99628.80;1663044;86;21548;-72
2022/10/25 08:13:26;;;;;;;10.82;6.22;;;;;;;14.02;100.00;99633.77;1663530;86;21492;-72
2022/10/25 08:15:54;;;;;;;11.40;5.87;;;;;;;14.18;100.00;99640.23;1663586;86;21035;-73
2022/10/25 08:18:22;;;;;;;11.73;6.28;;;;;;;14.20;100.00;99651.73;1663390;86;21202;-73
2022/10/25 08:20:49;;;;;;;10.23;5.65;;;;;;;14.26;100.00;99667.75;1663600;85;21607;-73
2022/10/25 08:23:17;;;;;;;12.23;6.00;;;;;;;14.30;100.00;99664.09;1663245;86;21608;-76
2022/10/25 08:25:44;;;;;;;12.20;6.62;;;;;;;14.36;100.00;99670.92;1663848;85;21071;-74
2022/10/25 08:28:12;;;;;;;12.78;6.60;;;;;;;14.43;100.00;99678.58;1669980;85;21038;-73
2022/10/25 08:30:40;;;;;;;15.03;6.40;;;;;;;14.49;100.00;99689.16;1703695;81;21193;-76
2022/10/25 08:33:07;;;;;;;9.98;5.45;;;;;;;14.54;100.00;99694.00;1767413;81;21014;-76
2022/10/25 08:35:33;;;;;;;8.65;5.50;;;;;;;14.60;100.00;99699.99;1767346;81;20985;-75
2022/10/25 08:38:01;;;;;;;9.55;5.08;;;;;;;14.70;100.00;99706.41;1766359;81;21064;-78
2022/10/25 08:40:55;;;;;;;12.98;5.67;;;;;;;14.70;100.00;99706.41;1766053;80;21060;-78
2022/10/25 08:43:34;;;;;;;10.35;5.37;;;;;;;14.81;100.00;99715.32;1675010;86;21029;-79
2022/10/25 08:46:05;;;;;;;11.15;6.25;;;;;;;14.90;100.00;99729.58;1671317;86;21061;-74
2022/10/25 08:48:38;;;;;;;10.20;5.17;;;;;;;14.91;100.00;99727.15;1674871;86;21065;-76
2022/10/25 08:51:13;;;;;;;8.83;5.17;;;;;;;14.94;100.00;99738.99;1675591;86;21507;-83
2022/10/25 08:53:44;;;;;;;10.05;5.12;;;;;;;14.96;100.00;99735.53;1674476;86;21105;-76
2022/10/25 08:56:13;;;;;;;12.90;5.75;;;;;;;15.00;100.00;99749.91;1649514;86;21591;-80
2022/10/25 08:58:59;;;;;;;10.72;5.70;;;;;;;15.01;100.00;99754.81;1676002;86;21049;-74
2022/10/25 09:01:42;;;;;;;11.65;6.65;;;;;;;14.97;100.00;99754.92;1675980;86;21037;-72
2022/10/25 09:04:09;;;;;;;;;;;;;;;14.86;100.00;99757.73;1678069;86;21069;-75
2022/10/25 09:06:43;;;;;;;11.93;5.78;;;;;;;14.77;100.00;99765.78;1676472;85;20136;-77
2022/10/25 09:09:49;;;;;;;12.73;6.42;;;;;;;14.77;100.00;99760.33;1676059;86;21050;-77
2022/10/25 09:12:31;;;;;;;12.65;6.40;;;;;;;14.85;100.00;99763.38;1677360;86;21085;-75
2022/10/25 09:15:08;;;;;;;14.70;8.03;;;;;;;14.85;100.00;99763.38;1676302;86;21058;-76
2022/10/25 09:17:49;;;;;;;14.53;6.78;;;;;;;14.85;100.00;99768.29;1673677;86;21030;-75
2022/10/25 09:20:36;;;;;;;12.95;6.62;;;;;;;14.86;100.00;99767.26;1728920;81;21626;-76
2022/10/25 09:23:30;;;;;;;12.30;5.72;;;;;;;14.98;100.00;99760.16;1709024;83;21056;-84
2022/10/25 09:26:05;;;;;;;10.58;6.10;;;;;;;15.33;100.00;99760.50;1727166;83;21069;-77
2022/10/25 09:28:54;;;;;;;11.22;5.78;;;;;;;15.40;100.00;99753.70;1731930;82;21005;-78
2022/10/25 09:31:22;;;;;;;13.38;6.80;;;;;;;15.40;100.00;99753.70;1674273;85;21017;-79
2022/10/25 09:33:59;;;;;;;12.25;6.55;;;;;;;15.39;100.00;99758.32;1674663;86;21519;-75
2022/10/25 09:36:29;;;;;;;14.07;6.78;;;;;;;15.40;100.00;99760.52;1672899;86;21062;-77
2022/10/25 09:38:59;;;;;;;14.18;7.55;;;;;;;15.54;100.00;99754.84;1673741;86;21509;-78
2022/10/25 09:41:39;;;;;;;19.80;11.90;;;;;;;15.81;100.00;99755.38;1672804;86;21530;-75
2022/10/25 09:44:31;;;;;;;15.78;8.05;;;;;;;16.00;100.00;99753.12;1672897;86;21045;-78
2022/10/25 09:47:14;;;;;;;14.38;7.25;;;;;;;16.29;100.00;99749.60;1674314;85;21553;-73
2022/10/25 09:50:02;;;;;;;20.85;8.40;;;;;;;16.51;100.00;99750.13;1669673;86;21557;-77
2022/10/25 09:52:52;;;;;;;21.35;11.93;;;;;;;16.58;100.00;99750.09;1609742;89;21657;-72
2022/10/25 09:55:36;;;;;;;23.85;13.48;;;;;;;16.55;100.00;99761.45;1607891;89;21578;-76
2022/10/25 09:58:02;;;;;;;19.30;11.05;;;;;;;16.61;100.00;99768.25;1608708;89;21117;-86
2022/10/25 10:00:29;;;;;;;15.03;8.35;;;;;;;16.71;100.00;99770.49;1606699;89;21612;-78
2022/10/25 10:02:56;;;;;;;12.45;7.10;;;;;;;16.80;100.00;99775.17;1578941;90;21115;-79
2022/10/25 10:05:23;;;;;;;14.13;7.40;;;;;;;16.88;100.00;99773.59;1599956;90;21079;-79
2022/10/25 10:07:53;;;;;;;10.70;5.92;;;;;;;16.95;100.00;99779.03;1600143;90;21059;-78
2022/10/25 10:10:25;;;;;;;12.58;7.17;;;;;;;16.94;100.00;99784.16;1608006;88;21701;-80
2022/10/25 10:13:35;;;;;;;17.25;7.50;;;;;;;16.84;100.00;99796.94;1609822;89;21044;-80
2022/10/25 10:16:30;;;;;;;9.28;5.42;;;;;;;16.83;100.00;99797.95;1610870;89;21065;-77
2022/10/25 10:19:19;;;;;;;10.05;5.87;;;;;;;16.88;100.00;99800.36;1609034;89;21026;-77
2022/10/25 10:21:55;;;;;;;9.78;5.80;;;;;;;16.80;100.00;99803.84;1610495;87;21153;-78
2022/10/25 10:24:28;;;;;;;8.80;5.50;;;;;;;16.69;100.00;99808.92;1610514;89;21078;-79
2022/10/25 10:26:58;;;;;;;10.03;5.60;;;;;;;16.48;100.00;99818.27;1611237;87;21057;-80
2022/10/25 10:29:30;;;;;;;10.60;5.30;;;;;;;16.33;100.00;99818.51;1679409;83;21633;-79
2022/10/25 10:32:00;;;;;;;13.10;6.47;;;;;;;16.13;100.00;99821.30;1734669;83;21081;-78
2022/10/25 10:34:34;;;;;;;7.37;4.75;;;;;;;15.97;100.00;99824.98;1735301;82;21005;-84
2022/10/25 10:37:18;;;;;;;8.55;4.35;;;;;;;15.84;100.00;99819.84;1734310;81;21021;-82
2022/10/25 10:39:58;;;;;;;8.25;5.00;;;;;;;15.78;100.00;99815.79;1735285;83;21024;-80
2022/10/25 10:42:35;;;;;;;10.63;5.28;;;;;;;15.69;100.00;99817.32;1734909;83;21037;-77
2022/10/25 10:45:11;;;;;;;9.08;5.15;;;;;;;15.63;100.00;99818.14;1734708;81;20937;-78
2022/10/25 10:47:44;;;;;;;11.73;5.30;;;;;;;15.60;100.00;99804.96;1705503;82;21044;-78
2022/10/25 10:50:21;;;;;;;10.55;4.42;;;;;;;15.58;100.00;99801.58;1705246;84;21040;-79
2022/10/25 10:52:56;;;;;;;8.75;4.42;;;;;;;15.61;100.00;99801.17;1703662;83;21072;-82
2022/10/25 10:55:30;;;;;;;7.03;3.85;;;;;;;15.67;100.00;99794.89;1705892;84;21597;-78
2022/10/25 10:58:21;;;;;;;8.48;4.30;;;;;;;15.75;100.00;99802.87;1703787;84;21050;-80
2022/10/25 11:01:01;;;;;;;9.70;4.25;;;;;;;15.80;100.00;99802.25;1715650;82;20966;-76
2022/10/25 11:03:45;;;;;;;12.60;4.87;;;;;;;15.93;100.00;99807.67;1734407;83;21037;-83
2022/10/25 11:06:26;;;;;;;7.83;4.17;;;;;;;16.03;100.00;99811.88;1733685;81;21005;-76
2022/10/25 11:09:22;;;;;;;9.03;4.60;;;;;;;16.15;100.00;99814.27;1732543;83;21002;-82
2022/10/25 11:12:07;;;;;;;8.48;4.00;;;;;;;16.23;100.00;99812.66;1724767;83;21065;-81
2022/10/25 11:14:34;;;;;;;8.30;4.50;;;;;;;16.33;100.00;99814.95;1703195;83;21621;-86
2022/10/25 11:17:15;;;;;;;10.85;4.40;;;;;;;16.43;100.00;99813.98;1729092;81;21506;-78
2022/10/25 11:20:23;;;;;;;6.35;3.70;;;;;;;16.45;100.00;99817.83;1734877;83;21006;-74
2022/10/25 11:23:11;;;;;;;6.05;4.17;;;;;;;16.34;100.00;99826.16;1734888;83;21037;-74
2022/10/25 11:26:00;;;;;;;6.72;4.17;;;;;;;16.18;100.00;99827.45;1734280;83;21629;-72
2022/10/25 11:28:50;;;;;;;7.70;4.20;;;;;;;16.17;100.00;99824.97;1694774;83;21060;-75
2022/10/25 11:31:43;;;;;;;10.05;4.33;;;;;;;16.24;100.00;99826.62;1689334;85;21115;-72
2022/10/25 11:34:24;;;;;;;7.50;4.10;;;;;;;16.39;100.00;99833.17;1613001;88;21081;-71
2022/10/25 11:37:11;;;;;;;7.22;4.15;;;;;;;16.63;100.00;99821.27;1648701;85;20983;-74
2022/10/25 11:39:50;;;;;;;8.38;4.58;;;;;;;16.70;100.00;99836.55;1608886;89;21112;-74
2022/10/25 11:42:34;;;;;;;6.58;4.20;;;;;;;16.54;100.00;99847.09;1616263;89;21041;-76
2022/10/25 11:45:28;;;;;;;8.33;4.00;;;;;;;16.42;100.00;99845.04;1616448;89;21167;-78
2022/10/25 11:48:19;;;;;;;6.87;3.98;;;;;;;16.43;100.00;99844.50;1615216;89;21104;-77
2022/10/25 11:51:18;;;;;;;9.10;4.62;;;;;;;16.36;100.00;99843.69;1616385;89;21121;-75
2022/10/25 11:54:14;;;;;;;7.33;3.80;;;;;;;16.28;100.00;99837.41;1615743;89;21149;-75
2022/10/25 11:57:13;;;;;;;5.62;3.80;;;;;;;16.17;100.00;99831.25;1616732;89;21113;-76
2022/10/25 12:00:12;;;;;;;8.73;4.30;;;;;;;16.03;100.00;99833.69;1615809;89;21120;-83
2022/10/25 12:03:13;;;;;;;8.80;4.40;;;;;;;15.90;100.00;99831.29;1608888;89;21121;-72
2022/10/25 12:05:54;;;;;;;5.80;3.72;;;;;;;15.88;100.00;99814.31;1567415;91;21064;-75
2022/10/25 12:08:40;;;;;;;10.88;5.55;;;;;;;15.99;100.00;99802.42;1481437;96;21179;-75
2022/10/25 12:11:10;;;;;;;11.40;5.12;;;;;;;16.03;100.00;99805.89;1509833;94;21119;-76
2022/10/25 12:13:42;;;;;;;10.38;5.10;;;;;;;15.96;100.00;99818.70;1529064;93;21570;-78
2022/10/25 12:16:13;;;;;;;11.90;5.03;;;;;;;15.82;100.00;99806.12;1548542;92;21092;-73
2022/10/25 12:18:57;;;;;;;13.72;4.97;;;;;;;15.68;100.00;99800.64;1561143;92;21121;-77
2022/10/25 12:21:29;;;;;;;8.85;4.00;;;;;;;15.60;100.00;99797.28;1559388;92;21078;-77
2022/10/25 12:23:56;;;;;;;;;;;;;;;15.46;100.00;99794.58;1536476;92;21138;-80
2022/10/25 12:26:34;;;;;;;6.37;3.40;;;;;;;15.33;100.00;99791.83;1553666;92;20134;-78
2022/10/25 12:29:04;;;;;;;8.90;4.50;;;;;;;15.28;100.00;99790.25;1534667;93;21101;-74
2022/10/25 12:31:42;;;;;;;7.03;4.15;;;;;;;15.32;100.00;99786.09;1516510;94;21670;-79
2022/10/25 12:34:22;;;;;;;5.60;3.87;;;;;;;15.40;100.00;99776.86;1524157;94;21177;-77
2022/10/25 12:36:53;;;;;;;6.33;3.37;;;;;;;15.54;100.00;99764.37;1524345;94;21206;-80
2022/10/25 12:39:38;;;;;;;41.10;10.58;;;;;;;15.68;100.00;99766.57;1524447;93;21161;-79
2022/10/25 12:42:21;;;;;;;8.23;4.10;;;;;;;15.71;100.00;99774.87;1524721;94;21119;-75
2022/10/25 12:45:19;;;;;;;7.17;3.77;;;;;;;15.87;100.00;99779.91;1456357;98;21206;-73